createdAt,value
2022-09-15T00:02:13.979Z,99316.28
2022-09-15T00:04:40.511Z,99299.41
2022-09-15T00:07:06.980Z,99291.75
2022-09-15T00:09:33.359Z,99286.00
2022-09-15T00:11:59.798Z,99268.28
2022-09-15T00:14:26.300Z,99262.47
2022-09-15T00:16:52.770Z,99230.41
2022-09-15T00:19:19.262Z,99212.16
2022-09-15T00:21:45.726Z,99217.88
2022-09-15T00:24:12.153Z,99227.03
2022-09-15T00:26:38.609Z,99232.19
2022-09-15T00:29:05.015Z,99236.84
2022-09-15T00:31:31.534Z,99261.69
2022-09-15T00:33:58.416Z,99288.31
2022-09-15T00:36:24.975Z,99267.41
2022-09-15T00:38:51.718Z,99289.22
2022-09-15T00:41:18.630Z,99303.88
2022-09-15T00:43:45.156Z,99308.34
2022-09-15T00:46:11.684Z,99317.41
2022-09-15T00:48:39.186Z,99341.78
2022-09-15T00:51:05.748Z,99347.50
2022-09-15T00:53:32.164Z,99353.31
2022-09-15T00:55:58.587Z,99345.66
2022-09-15T00:58:33.029Z,99338.66
2022-09-15T01:01:00.838Z,99353.69
2022-09-15T01:03:27.772Z,99348.53
2022-09-15T01:06:14.438Z,99342.50
2022-09-15T01:08:45.658Z,99346.16
2022-09-15T01:11:12.210Z,99345.94
2022-09-15T01:13:38.699Z,99352.78
2022-09-15T01:16:11.123Z,99353.13
2022-09-15T01:18:37.507Z,99353.78
2022-09-15T01:21:03.921Z,99339.25
2022-09-15T01:23:59.543Z,99337.03
2022-09-15T01:26:44.340Z,99335.03
2022-09-15T01:29:16.882Z,99349.22
2022-09-15T01:32:06.241Z,99343.91
2022-09-15T01:34:33.915Z,99341.34
2022-09-15T01:37:02.206Z,99333.50
2022-09-15T01:39:29.579Z,99330.56
2022-09-15T01:41:57.152Z,99331.69
2022-09-15T01:44:24.955Z,99330.66
2022-09-15T01:46:52.744Z,99335.09
2022-09-15T01:49:21.084Z,99332.44
2022-09-15T01:51:48.142Z,99341.12
2022-09-15T01:54:14.585Z,99341.12
2022-09-15T01:56:41.732Z,99342.31
2022-09-15T01:59:08.687Z,99348.94
2022-09-15T02:01:40.553Z,99344.81
2022-09-15T02:04:18.427Z,99345.97
2022-09-15T02:06:53.314Z,99349.31
2022-09-15T02:09:23.370Z,99349.31
2022-09-15T02:12:10.571Z,99348.81
2022-09-15T02:14:49.248Z,99345.50
2022-09-15T02:17:16.584Z,99348.59
2022-09-15T02:19:47.924Z,99346.75
2022-09-15T02:22:17.737Z,99342.97
2022-09-15T02:24:50.152Z,99346.28
2022-09-15T02:27:17.901Z,99357.69
2022-09-15T02:29:45.322Z,99353.06
2022-09-15T02:32:11.842Z,99346.09
2022-09-15T02:34:40.616Z,99348.72
2022-09-15T02:37:07.012Z,99352.44
2022-09-15T02:39:35.047Z,99352.78
2022-09-15T02:42:02.546Z,99372.78
2022-09-15T02:44:30.686Z,99359.63
2022-09-15T02:46:58.017Z,99360.09
2022-09-15T02:49:24.441Z,99352.69
2022-09-15T02:51:50.825Z,99359.22
2022-09-15T02:54:17.241Z,99362.34
2022-09-15T02:56:43.652Z,99352.81
2022-09-15T02:59:10.075Z,99355.66
2022-09-15T03:01:36.535Z,99357.44
2022-09-15T03:04:03.100Z,99351.38
2022-09-15T03:06:34.483Z,99346.91
2022-09-15T03:09:01.404Z,99337.34
2022-09-15T03:11:28.103Z,99343.28
2022-09-15T03:13:55.113Z,99348.03
2022-09-15T03:16:21.603Z,99352.87
2022-09-15T03:18:48.445Z,99346.66
2022-09-15T03:21:15.002Z,99351.63
2022-09-15T03:23:41.729Z,99358.91
2022-09-15T03:26:09.086Z,99350.91
2022-09-15T03:28:35.826Z,99349.34
2022-09-15T03:31:02.392Z,99354.00
2022-09-15T03:33:29.912Z,99360.81
2022-09-15T03:35:56.327Z,99355.31
2022-09-15T03:38:23.231Z,99358.81
2022-09-15T03:40:56.342Z,99351.50
2022-09-15T03:43:22.764Z,99358.31
2022-09-15T03:45:49.209Z,99347.22
2022-09-15T03:48:15.663Z,99358.50
2022-09-15T03:50:42.064Z,99345.84
2022-09-15T03:53:08.514Z,99347.88
2022-09-15T03:55:35.090Z,99347.19
2022-09-15T03:58:01.537Z,99354.59
2022-09-15T04:00:28.002Z,99350.63
2022-09-15T04:02:54.725Z,99353.25
2022-09-15T04:05:21.121Z,99355.69
2022-09-15T04:07:47.529Z,99362.78
2022-09-15T04:10:14.326Z,99360.75
2022-09-15T04:12:40.820Z,99357.59
2022-09-15T04:15:07.403Z,99366.28
2022-09-15T04:17:33.823Z,99372.38
2022-09-15T04:20:00.218Z,99376.31
2022-09-15T04:22:27.640Z,99371.41
2022-09-15T04:24:54.124Z,99372.44
2022-09-15T04:27:20.913Z,99370.78
2022-09-15T04:29:47.313Z,99362.63
2022-09-15T04:32:13.746Z,99369.63
2022-09-15T04:34:41.543Z,99378.28
2022-09-15T04:37:08.063Z,99391.63
2022-09-15T04:39:34.601Z,99392.88
2022-09-15T04:42:03.755Z,99399.84
2022-09-15T04:44:30.140Z,99394.88
2022-09-15T04:46:56.632Z,99402.12
2022-09-15T04:49:23.104Z,99396.25
2022-09-15T04:51:49.562Z,99394.88
2022-09-15T04:54:15.945Z,99382.44
2022-09-15T04:56:42.746Z,99386.69
2022-09-15T04:59:12.427Z,99389.81
2022-09-15T05:01:38.897Z,99374.88
2022-09-15T05:04:05.398Z,99374.56
2022-09-15T05:06:31.830Z,99381.31
2022-09-15T05:08:58.284Z,99373.78
2022-09-15T05:11:24.920Z,99377.56
2022-09-15T05:13:51.545Z,99381.25
2022-09-15T05:16:21.574Z,99392.75
2022-09-15T05:18:48.559Z,99389.53
2022-09-15T05:21:16.235Z,99400.53
2022-09-15T05:23:42.880Z,99410.53
2022-09-15T05:26:11.584Z,99417.78
2022-09-15T05:28:38.016Z,99432.88
2022-09-15T05:31:25.006Z,99434.63
2022-09-15T05:33:52.690Z,99428.75
2022-09-15T05:36:21.209Z,99441.34
2022-09-15T05:38:47.761Z,99449.88
2022-09-15T05:41:17.571Z,99452.06
2022-09-15T05:43:44.347Z,99449.59
2022-09-15T05:46:10.956Z,99445.22
2022-09-15T05:48:37.526Z,99442.25
2022-09-15T05:51:04.036Z,99452.69
2022-09-15T05:53:31.064Z,99454.38
2022-09-15T05:55:57.859Z,99444.53
2022-09-15T05:58:24.732Z,99448.16
2022-09-15T06:00:51.314Z,99449.19
2022-09-15T06:03:17.843Z,99437.59
2022-09-15T06:05:46.842Z,99436.91
2022-09-15T06:08:13.292Z,99433.75
2022-09-15T06:10:40.036Z,99432.97
2022-09-15T06:13:06.521Z,99444.13
2022-09-15T06:15:32.998Z,99450.41
2022-09-15T06:17:59.446Z,99436.16
2022-09-15T06:20:25.897Z,99431.22
2022-09-15T06:22:53.016Z,99430.34
2022-09-15T06:25:19.792Z,99431.22
2022-09-15T06:27:48.462Z,99441.91
2022-09-15T06:30:14.873Z,99450.97
2022-09-15T06:32:44.126Z,99456.03
2022-09-15T06:35:12.694Z,99469.31
2022-09-15T06:37:39.138Z,99467.87
2022-09-15T06:40:07.837Z,99453.19
2022-09-15T06:42:34.307Z,99444.91
2022-09-15T06:45:01.238Z,99451.81
2022-09-15T06:47:33.878Z,99459.44
2022-09-15T06:50:00.830Z,99462.47
2022-09-15T06:52:27.417Z,99461.88
2022-09-15T06:54:53.841Z,99459.94
2022-09-15T06:57:20.394Z,99451.94
2022-09-15T07:02:50.808Z,99472.66
2022-09-15T07:05:17.402Z,99479.03
2022-09-15T07:07:44.014Z,99468.34
2022-09-15T07:10:10.443Z,99463.62
2022-09-15T07:12:37.279Z,99466.84
2022-09-15T07:15:03.865Z,99477.88
2022-09-15T07:17:30.286Z,99494.47
2022-09-15T07:19:56.717Z,99487.62
2022-09-15T07:22:24.521Z,99487.91
2022-09-15T07:24:50.967Z,99491.37
2022-09-15T07:27:17.346Z,99510.25
2022-09-15T07:29:43.945Z,99498.91
2022-09-15T07:32:10.353Z,99499.81
2022-09-15T07:34:36.865Z,99500.19
2022-09-15T07:37:03.313Z,99495.03
2022-09-15T07:39:30.996Z,99499.69
2022-09-15T07:41:57.783Z,99487.94
2022-09-15T07:44:24.251Z,99490.47
2022-09-15T07:46:50.741Z,99495.91
2022-09-15T07:49:17.190Z,99479.47
2022-09-15T07:51:43.623Z,99487.69
2022-09-15T07:54:10.052Z,99489.75
2022-09-15T07:56:36.949Z,99490.00
2022-09-15T07:59:03.414Z,99497.41
2022-09-15T08:01:29.851Z,99490.63
2022-09-15T08:03:56.308Z,99502.34
2022-09-15T08:06:23.262Z,99497.13
2022-09-15T08:08:53.996Z,99502.50
2022-09-15T08:11:22.998Z,99495.78
2022-09-15T08:13:50.004Z,99489.19
2022-09-15T08:16:18.025Z,99501.72
2022-09-15T08:18:44.582Z,99497.97
2022-09-15T08:21:11.930Z,99497.16
2022-09-15T08:23:38.411Z,99495.84
2022-09-15T08:26:13.065Z,99498.59
2022-09-15T08:28:40.193Z,99496.53
2022-09-15T08:31:07.212Z,99486.28
2022-09-15T08:33:33.715Z,99496.28
2022-09-15T08:36:00.724Z,99495.50
2022-09-15T08:38:27.155Z,99486.12
2022-09-15T08:40:57.298Z,99486.91
2022-09-15T08:43:23.853Z,99476.22
2022-09-15T08:45:52.302Z,99470.47
2022-09-15T08:48:19.453Z,99474.66
2022-09-15T08:50:46.095Z,99474.78
2022-09-15T08:53:14.112Z,99482.50
2022-09-15T08:55:50.059Z,99468.41
2022-09-15T08:58:17.179Z,99469.69
2022-09-15T09:00:44.357Z,99463.25
2022-09-15T09:03:10.836Z,99458.47
2022-09-15T09:05:41.629Z,99462.22
2022-09-15T09:08:10.789Z,99440.72
2022-09-15T09:10:49.425Z,99449.75
2022-09-15T09:13:20.851Z,99429.25
2022-09-15T09:16:16.916Z,99432.94
2022-09-15T09:19:02.306Z,99427.31
2022-09-15T09:21:32.227Z,99432.84
2022-09-15T09:24:01.866Z,99425.34
2022-09-15T09:26:28.481Z,99418.78
2022-09-15T09:28:58.921Z,99415.63
2022-09-15T09:31:25.589Z,99418.75
2022-09-15T09:33:55.110Z,99408.69
2022-09-15T09:36:21.888Z,99408.94
2022-09-15T09:38:48.304Z,99412.75
2022-09-15T09:41:15.352Z,99413.66
2022-09-15T09:43:46.305Z,99429.34
2022-09-15T09:46:15.271Z,99429.53
2022-09-15T09:49:07.900Z,99420.75
2022-09-15T09:51:35.711Z,99419.88
2022-09-15T09:54:12.721Z,99416.69
2022-09-15T09:56:39.301Z,99402.69
2022-09-15T09:59:05.733Z,99409.16
2022-09-15T10:01:32.249Z,99399.34
2022-09-15T10:04:17.104Z,99399.87
2022-09-15T10:06:44.031Z,99390.06
2022-09-15T10:09:14.307Z,99381.84
2022-09-15T10:11:45.109Z,99379.91
2022-09-15T10:14:28.412Z,99373.94
2022-09-15T10:16:58.727Z,99372.84
2022-09-15T10:19:25.418Z,99353.66
2022-09-15T10:21:51.845Z,99366.91
2022-09-15T10:24:27.459Z,99363.03
2022-09-15T10:27:07.050Z,99346.25
2022-09-15T10:29:39.920Z,99338.31
2022-09-15T10:32:16.584Z,99335.22
2022-09-15T10:34:44.082Z,99332.72
2022-09-15T10:37:19.405Z,99339.97
2022-09-15T10:39:52.883Z,99336.59
2022-09-15T10:42:22.213Z,99332.63
2022-09-15T10:45:11.204Z,99337.03
2022-09-15T10:47:41.612Z,99342.59
2022-09-15T10:50:14.312Z,99348.69
2022-09-15T10:52:40.736Z,99344.69
2022-09-15T10:55:31.822Z,99343.13
2022-09-15T10:58:04.271Z,99338.53
2022-09-15T11:00:41.191Z,99337.28
2022-09-15T11:03:07.628Z,99333.06
2022-09-15T11:05:34.040Z,99341.88
2022-09-15T11:08:19.446Z,99334.16
2022-09-15T11:10:48.884Z,99332.50
2022-09-15T11:13:25.693Z,99341.78
2022-09-15T11:15:55.180Z,99335.34
2022-09-15T11:18:40.212Z,99324.66
2022-09-15T11:21:16.927Z,99343.06
2022-09-15T11:23:55.655Z,99337.28
2022-09-15T11:26:28.157Z,99341.31
2022-09-15T11:28:56.553Z,99341.38
2022-09-15T11:31:38.732Z,99343.97
2022-09-15T11:34:15.228Z,99341.31
2022-09-15T11:36:49.430Z,99333.34
2022-09-15T11:39:33.691Z,99332.41
2022-09-15T11:42:07.798Z,99322.34
2022-09-15T11:44:41.815Z,99318.50
2022-09-15T11:47:13.699Z,99311.81
2022-09-15T11:49:40.145Z,99303.19
2022-09-15T11:52:12.774Z,99283.59
2022-09-15T11:54:46.974Z,99273.69
2022-09-15T11:57:18.084Z,99270.25
2022-09-15T11:59:52.239Z,99259.22
2022-09-15T12:02:57.337Z,99256.25
2022-09-15T12:05:23.929Z,99256.44
2022-09-15T12:07:51.572Z,99266.88
2022-09-15T12:10:19.102Z,99264.34
2022-09-15T12:16:07.677Z,99285.06
2022-09-15T12:18:48.777Z,99288.84
2022-09-15T12:21:22.983Z,99292.47
2022-09-15T12:23:54.756Z,99280.28
2022-09-15T12:26:21.547Z,99278.69
2022-09-15T12:28:58.076Z,99268.69
2022-09-15T12:31:25.565Z,99259.25
2022-09-15T12:33:56.284Z,99257.06
2022-09-15T12:36:31.967Z,99260.22
2022-09-15T12:38:58.767Z,99259.81
2022-09-15T12:41:25.324Z,99257.28
2022-09-15T12:43:54.814Z,99248.22
2022-09-15T12:46:21.401Z,99243.06
2022-09-15T12:48:47.857Z,99251.69
2022-09-15T12:51:21.369Z,99238.53
2022-09-15T12:53:47.754Z,99221.75
2022-09-15T12:56:59.858Z,99216.94
2022-09-15T12:59:26.417Z,99222.09
2022-09-15T13:01:53.652Z,99244.03
2022-09-15T13:04:24.728Z,99247.25
2022-09-15T13:07:10.136Z,99251.41
2022-09-15T13:09:56.792Z,99280.44
2022-09-15T13:12:24.120Z,99344.16
2022-09-15T13:14:50.590Z,99392.75
2022-09-15T13:17:18.417Z,99355.13
2022-09-15T13:19:46.769Z,99337.47
2022-09-15T13:22:27.448Z,99324.81
2022-09-15T13:25:10.909Z,99303.12
2022-09-15T13:27:41.358Z,99294.59
2022-09-15T13:30:19.162Z,99278.19
2022-09-15T13:32:45.557Z,99284.31
2022-09-15T13:35:30.980Z,99293.53
2022-09-15T13:38:20.219Z,99297.19
2022-09-15T13:40:58.375Z,99319.56
2022-09-15T13:43:42.457Z,99313.16
2022-09-15T13:46:25.083Z,99293.25
2022-09-15T13:49:17.827Z,99294.78
2022-09-15T13:51:45.068Z,99284.69
2022-09-15T13:54:19.161Z,99286.09
2022-09-15T13:56:46.890Z,99292.53
2022-09-15T13:59:17.073Z,99297.97
2022-09-15T14:01:44.572Z,99306.38
2022-09-15T14:04:17.819Z,99295.00
2022-09-15T14:06:44.898Z,99267.66
2022-09-15T14:09:16.329Z,99277.69
2022-09-15T14:11:42.887Z,99291.81
2022-09-15T14:14:21.327Z,99308.47
2022-09-15T14:16:48.899Z,99292.87
2022-09-15T14:19:21.049Z,99261.59
2022-09-15T14:21:49.163Z,99265.62
2022-09-15T14:24:20.534Z,99272.50
2022-09-15T14:26:47.071Z,99284.41
2022-09-15T14:29:15.124Z,99268.03
2022-09-15T14:31:41.603Z,99269.16
2022-09-15T14:34:14.581Z,99287.97
2022-09-15T14:36:41.131Z,99307.87
2022-09-15T14:39:10.479Z,99316.22
2022-09-15T14:41:37.200Z,99322.53
2022-09-15T14:47:27.885Z,99336.16
2022-09-15T14:50:08.106Z,99318.41
2022-09-15T14:52:36.098Z,99326.38
2022-09-15T14:55:03.106Z,99309.31
2022-09-15T14:57:31.238Z,99318.00
2022-09-15T14:59:59.740Z,99325.72
2022-09-15T15:02:38.344Z,99335.09
2022-09-15T15:05:09.886Z,99359.09
2022-09-15T15:07:36.782Z,99337.94
2022-09-15T15:10:07.155Z,99332.31
2022-09-15T15:12:34.862Z,99322.44
2022-09-15T15:15:01.329Z,99311.88
2022-09-15T15:17:33.841Z,99328.41
2022-09-15T15:20:01.123Z,99324.19
2022-09-15T15:22:27.540Z,99315.53
2022-09-15T15:24:54.056Z,99314.13
2022-09-15T15:27:32.844Z,99294.66
2022-09-15T15:30:18.302Z,99274.94
2022-09-15T15:32:44.726Z,99293.28
2022-09-15T15:35:15.707Z,99279.47
2022-09-15T15:37:46.371Z,99282.56
2022-09-15T15:40:14.357Z,99330.37
2022-09-15T15:42:59.924Z,99336.06
2022-09-15T15:45:27.464Z,99328.19
2022-09-15T15:47:54.020Z,99322.69
2022-09-15T15:50:21.364Z,99322.37
2022-09-15T15:52:48.205Z,99314.56
2022-09-15T15:55:15.709Z,99316.22
2022-09-15T15:57:42.123Z,99297.53
2022-09-15T16:00:30.526Z,99298.31
2022-09-15T16:02:57.311Z,99292.97
2022-09-15T16:05:26.761Z,99300.91
2022-09-15T16:07:53.179Z,99286.91
2022-09-15T16:10:20.988Z,99283.63
2022-09-15T16:12:48.109Z,99268.50
2022-09-15T16:15:16.742Z,99264.28
2022-09-15T16:17:46.639Z,99255.06
2022-09-15T16:20:15.767Z,99248.59
2022-09-15T16:22:42.461Z,99242.12
2022-09-15T16:25:13.623Z,99234.00
2022-09-15T16:27:41.656Z,99232.16
2022-09-15T16:30:12.052Z,99233.41
2022-09-15T16:32:39.753Z,99234.19
2022-09-15T16:35:21.460Z,99235.31
2022-09-15T16:37:47.847Z,99241.63
2022-09-15T16:40:14.496Z,99247.22
2022-09-15T16:42:40.968Z,99251.44
2022-09-15T16:45:16.214Z,99239.13
2022-09-15T16:47:42.636Z,99238.28
2022-09-15T16:50:09.800Z,99242.62
2022-09-15T16:52:36.286Z,99260.44
2022-09-15T16:55:06.121Z,99270.66
2022-09-15T16:57:32.548Z,99277.00
2022-09-15T16:59:58.984Z,99269.53
2022-09-15T17:02:25.652Z,99271.06
2022-09-15T17:05:09.221Z,99271.34
2022-09-15T17:07:35.731Z,99271.66
2022-09-15T17:10:02.144Z,99273.88
2022-09-15T17:12:28.586Z,99277.50
2022-09-15T17:14:57.580Z,99285.13
2022-09-15T17:17:24.535Z,99289.03
2022-09-15T17:19:50.939Z,99283.87
2022-09-15T17:22:17.428Z,99283.72
2022-09-15T17:24:43.893Z,99277.69
2022-09-15T17:27:10.359Z,99276.72
2022-09-15T17:29:36.781Z,99282.44
2022-09-15T17:32:03.221Z,99271.94
2022-09-15T17:34:29.695Z,99272.62
2022-09-15T17:36:57.475Z,99265.34
2022-09-15T17:39:24.078Z,99266.47
2022-09-15T17:41:50.895Z,99259.34
2022-09-15T17:44:17.365Z,99255.28
2022-09-15T17:46:43.848Z,99249.00
2022-09-15T17:49:12.569Z,99262.31
2022-09-15T17:51:39.074Z,99264.69
2022-09-15T17:54:07.431Z,99263.03
2022-09-15T17:56:34.220Z,99255.06
2022-09-15T17:59:00.846Z,99258.84
2022-09-15T18:01:27.311Z,99253.94
2022-09-15T18:03:53.958Z,99258.00
2022-09-15T18:06:20.428Z,99256.34
2022-09-15T18:08:46.876Z,99260.50
2022-09-15T18:11:13.642Z,99267.25
2022-09-15T18:13:40.066Z,99257.31
2022-09-15T18:16:07.937Z,99264.00
2022-09-15T18:18:34.457Z,99273.00
2022-09-15T18:21:01.142Z,99278.31
2022-09-15T18:23:29.619Z,99270.78
2022-09-15T18:25:56.352Z,99274.97
2022-09-15T18:28:22.827Z,99276.63
2022-09-15T18:30:49.902Z,99284.78
2022-09-15T18:33:16.392Z,99290.38
2022-09-15T18:35:43.028Z,99284.09
2022-09-15T18:38:09.517Z,99286.44
2022-09-15T18:40:36.049Z,99281.09
2022-09-15T18:43:02.478Z,99274.28
2022-09-15T18:45:28.905Z,99279.03
2022-09-15T18:47:55.474Z,99287.59
2022-09-15T18:50:22.713Z,99284.56
2022-09-15T18:52:49.477Z,99291.84
2022-09-15T18:55:16.939Z,99292.81
2022-09-15T18:57:43.685Z,99299.25
2022-09-15T19:00:12.026Z,99301.69
2022-09-15T19:02:38.646Z,99302.66
2022-09-15T19:05:05.796Z,99310.22
2022-09-15T19:07:32.306Z,99312.59
2022-09-15T19:09:59.043Z,99311.75
2022-09-15T19:12:25.584Z,99314.97
2022-09-15T19:14:52.058Z,99329.81
2022-09-15T19:17:18.510Z,99321.69
2022-09-15T19:19:46.505Z,99313.97
2022-09-15T19:22:12.991Z,99305.88
2022-09-15T19:24:39.454Z,99304.72
2022-09-15T19:27:06.321Z,99320.56
2022-09-15T19:29:34.896Z,99315.22
2022-09-15T19:32:04.828Z,99311.59
2022-09-15T19:34:31.254Z,99317.91
2022-09-15T19:36:57.855Z,99332.59
2022-09-15T19:39:24.294Z,99337.63
2022-09-15T19:41:50.771Z,99333.59
2022-09-15T19:44:17.260Z,99331.63
2022-09-15T19:46:43.807Z,99334.56
2022-09-15T19:49:10.337Z,99331.19
2022-09-15T19:51:37.227Z,99325.88
2022-09-15T19:54:04.476Z,99331.19
2022-09-15T19:56:31.126Z,99341.00
2022-09-15T19:58:57.807Z,99340.31
2022-09-15T20:01:24.726Z,99349.12
2022-09-15T20:03:52.676Z,99347.44
2022-09-15T20:06:19.192Z,99338.22
2022-09-15T20:08:47.408Z,99329.94
2022-09-15T20:11:14.345Z,99346.44
2022-09-15T20:13:44.125Z,99340.56
2022-09-15T20:16:19.738Z,99346.31
2022-09-15T20:18:47.753Z,99356.69
2022-09-15T20:21:26.952Z,99352.47
2022-09-15T20:23:59.431Z,99350.50
2022-09-15T20:26:26.178Z,99364.09
2022-09-15T20:28:53.592Z,99363.53
2022-09-15T20:31:24.637Z,99373.16
2022-09-15T20:33:51.817Z,99366.22
2022-09-15T20:36:23.422Z,99361.03
2022-09-15T20:38:49.976Z,99358.22
2022-09-15T20:41:16.989Z,99359.75
2022-09-15T20:43:43.498Z,99374.44
2022-09-15T20:46:13.776Z,99379.66
2022-09-15T20:48:40.359Z,99381.72
2022-09-15T20:51:06.811Z,99377.91
2022-09-15T20:53:33.525Z,99393.19
2022-09-15T20:55:59.978Z,99399.37
2022-09-15T20:58:26.453Z,99405.50
2022-09-15T21:01:01.576Z,99402.03
2022-09-15T21:03:28.139Z,99398.81
2022-09-15T21:05:58.181Z,99396.16
2022-09-15T21:08:24.614Z,99403.12
2022-09-15T21:10:51.012Z,99400.47
2022-09-15T21:13:19.260Z,99408.31
2022-09-15T21:15:53.338Z,99405.13
2022-09-15T21:18:20.376Z,99408.03
2022-09-15T21:20:47.814Z,99408.03
2022-09-15T21:23:14.281Z,99409.44
2022-09-15T21:25:40.697Z,99406.63
2022-09-15T21:28:07.741Z,99397.94
2022-09-15T21:30:34.152Z,99403.41
2022-09-15T21:33:01.206Z,99412.38
2022-09-15T21:35:27.627Z,99405.09
2022-09-15T21:37:57.593Z,99409.44
2022-09-15T21:40:26.536Z,99397.69
2022-09-15T21:42:52.955Z,99404.22
2022-09-15T21:45:19.855Z,99410.44
2022-09-15T21:47:46.305Z,99403.56
2022-09-15T21:50:12.756Z,99417.16
2022-09-15T21:52:39.542Z,99418.69
2022-09-15T21:55:06.637Z,99420.47
2022-09-15T21:57:33.132Z,99435.03
2022-09-15T21:59:59.670Z,99444.84
2022-09-15T22:02:26.165Z,99451.44
2022-09-15T22:04:52.689Z,99455.22
2022-09-15T22:07:19.416Z,99456.47
2022-09-15T22:09:46.563Z,99470.59
2022-09-15T22:12:13.121Z,99465.84
2022-09-15T22:14:39.533Z,99479.28
2022-09-15T22:17:05.952Z,99481.09
2022-09-15T22:19:32.529Z,99484.72
2022-09-15T22:21:59.228Z,99482.50
2022-09-15T22:24:26.734Z,99479.16
2022-09-15T22:26:53.159Z,99483.47
2022-09-15T22:29:19.703Z,99485.72
2022-09-15T22:31:46.476Z,99469.34
2022-09-15T22:34:12.980Z,99474.09
2022-09-15T22:36:39.515Z,99481.81
2022-09-15T22:39:06.358Z,99481.94
2022-09-15T22:41:33.959Z,99490.06
2022-09-15T22:44:00.348Z,99492.59
2022-09-15T22:46:27.072Z,99504.19
2022-09-15T22:48:53.568Z,99510.22
2022-09-15T22:51:20.017Z,99512.59
2022-09-15T22:53:46.847Z,99507.41
2022-09-15T22:56:14.664Z,99523.53
2022-09-15T22:58:41.808Z,99522.28
2022-09-15T23:01:09.826Z,99526.03
2022-09-15T23:03:36.994Z,99529.94
2022-09-15T23:06:03.394Z,99532.88
2022-09-15T23:08:29.991Z,99547.84
2022-09-15T23:11:06.330Z,99546.31
2022-09-15T23:13:33.220Z,99556.81
2022-09-15T23:15:59.738Z,99557.63
2022-09-15T23:18:27.351Z,99561.97
2022-09-15T23:20:57.861Z,99567.00
2022-09-15T23:23:24.273Z,99569.38
2022-09-15T23:25:50.720Z,99569.91
2022-09-15T23:28:17.226Z,99565.97
2022-09-15T23:30:43.757Z,99576.91
2022-09-15T23:33:10.155Z,99580.97
2022-09-15T23:35:36.656Z,99573.81
2022-09-15T23:38:03.044Z,99575.78
2022-09-15T23:40:29.782Z,99577.31
2022-09-15T23:42:56.295Z,99569.06
2022-09-15T23:45:22.711Z,99563.03
2022-09-15T23:47:49.378Z,99572.13
2022-09-15T23:50:15.892Z,99578.41
2022-09-15T23:52:42.349Z,99584.00
2022-09-15T23:55:08.927Z,99579.22
2022-09-15T23:57:35.553Z,99579.50
